sensor_id;sensor_type;location;lat;lon;timestamp;temperature;humidity
8332;DHT22;4203;48.144;14.118;2023-07-31T00:00:24;16.40;99.90
8332;DHT22;4203;48.144;14.118;2023-07-31T00:02:52;16.40;99.90
8332;DHT22;4203;48.144;14.118;2023-07-31T00:05:19;16.50;99.90
8332;DHT22;4203;48.144;14.118;2023-07-31T00:07:48;16.50;99.90
8332;DHT22;4203;48.144;14.118;2023-07-31T00:10:15;16.50;99.90
8332;DHT22;4203;48.144;14.118;2023-07-31T00:12:45;16.60;99.90
8332;DHT22;4203;48.144;14.118;2023-07-31T00:15:13;16.60;99.90
8332;DHT22;4203;48.144;14.118;2023-07-31T00:17:40;16.60;99.90
8332;DHT22;4203;48.144;14.118;2023-07-31T00:20:08;16.70;99.90
8332;DHT22;4203;48.144;14.118;2023-07-31T00:22:36;16.70;99.90
8332;DHT22;4203;48.144;14.118;2023-07-31T00:25:04;16.70;99.90
8332;DHT22;4203;48.144;14.118;2023-07-31T00:27:32;16.70;99.90
8332;DHT22;4203;48.144;14.118;2023-07-31T00:29:59;16.70;99.90
8332;DHT22;4203;48.144;14.118;2023-07-31T00:32:26;16.80;99.90
8332;DHT22;4203;48.144;14.118;2023-07-31T00:34:53;16.80;99.90
8332;DHT22;4203;48.144;14.118;2023-07-31T00:37:20;16.80;99.90
8332;DHT22;4203;48.144;14.118;2023-07-31T00:39:47;16.80;99.90
8332;DHT22;4203;48.144;14.118;2023-07-31T00:42:16;16.90;99.90
8332;DHT22;4203;48.144;14.118;2023-07-31T00:44:43;16.80;99.90
8332;DHT22;4203;48.144;14.118;2023-07-31T00:47:10;16.80;99.90
8332;DHT22;4203;48.144;14.118;2023-07-31T00:49:37;16.90;99.90
8332;DHT22;4203;48.144;14.118;2023-07-31T00:52:05;16.90;99.90
8332;DHT22;4203;48.144;14.118;2023-07-31T00:54:33;16.80;99.90
8332;DHT22;4203;48.144;14.118;2023-07-31T00:57:00;16.80;99.90
8332;DHT22;4203;48.144;14.118;2023-07-31T00:59:29;16.90;99.90
8332;DHT22;4203;48.144;14.118;2023-07-31T01:01:56;16.90;99.90
8332;DHT22;4203;48.144;14.118;2023-07-31T01:04:23;16.90;99.90
8332;DHT22;4203;48.144;14.118;2023-07-31T01:06:58;16.90;99.90
8332;DHT22;4203;48.144;14.118;2023-07-31T01:09:33;16.90;99.90
8332;DHT22;4203;48.144;14.118;2023-07-31T01:12:03;16.90;99.90
8332;DHT22;4203;48.144;14.118;2023-07-31T01:14:32;16.80;99.90
8332;DHT22;4203;48.144;14.118;2023-07-31T01:17:00;16.80;99.90
8332;DHT22;4203;48.144;14.118;2023-07-31T01:19:27;16.70;99.90
8332;DHT22;4203;48.144;14.118;2023-07-31T01:22:12;16.70;99.90
8332;DHT22;4203;48.144;14.118;2023-07-31T01:24:55;16.70;99.90
8332;DHT22;4203;48.144;14.118;2023-07-31T01:27:28;16.60;99.90
8332;DHT22;4203;48.144;14.118;2023-07-31T01:30:03;16.60;99.90
8332;DHT22;4203;48.144;14.118;2023-07-31T01:32:36;16.50;99.90
8332;DHT22;4203;48.144;14.118;2023-07-31T01:35:06;16.50;99.90
8332;DHT22;4203;48.144;14.118;2023-07-31T01:37:34;16.40;99.90
8332;DHT22;4203;48.144;14.118;2023-07-31T01:40:02;16.30;99.90
8332;DHT22;4203;48.144;14.118;2023-07-31T01:42:30;16.30;99.90
8332;DHT22;4203;48.144;14.118;2023-07-31T01:44:57;16.30;99.90
8332;DHT22;4203;48.144;14.118;2023-07-31T01:47:24;16.20;99.90
8332;DHT22;4203;48.144;14.118;2023-07-31T01:49:52;16.20;99.90
8332;DHT22;4203;48.144;14.118;2023-07-31T01:52:19;16.20;99.90
8332;DHT22;4203;48.144;14.118;2023-07-31T01:54:46;16.20;99.90
8332;DHT22;4203;48.144;14.118;2023-07-31T01:57:13;16.10;99.90
8332;DHT22;4203;48.144;14.118;2023-07-31T01:59:41;16.00;99.90
8332;DHT22;4203;48.144;14.118;2023-07-31T02:02:09;16.00;99.90
8332;DHT22;4203;48.144;14.118;2023-07-31T02:04:36;15.90;99.90
8332;DHT22;4203;48.144;14.118;2023-07-31T02:07:04;15.90;99.90
8332;DHT22;4203;48.144;14.118;2023-07-31T02:09:32;15.90;99.90
8332;DHT22;4203;48.144;14.118;2023-07-31T02:11:59;15.90;99.90
8332;DHT22;4203;48.144;14.118;2023-07-31T02:14:26;15.80;99.90
8332;DHT22;4203;48.144;14.118;2023-07-31T02:16:55;15.80;99.90
8332;DHT22;4203;48.144;14.118;2023-07-31T02:19:22;15.80;99.90
8332;DHT22;4203;48.144;14.118;2023-07-31T02:21:51;15.80;99.90
8332;DHT22;4203;48.144;14.118;2023-07-31T02:24:18;15.80;99.90
8332;DHT22;4203;48.144;14.118;2023-07-31T02:26:45;15.80;99.90
8332;DHT22;4203;48.144;14.118;2023-07-31T02:29:13;15.80;99.90
8332;DHT22;4203;48.144;14.118;2023-07-31T02:31:40;15.80;99.90
8332;DHT22;4203;48.144;14.118;2023-07-31T02:34:08;15.80;99.90
8332;DHT22;4203;48.144;14.118;2023-07-31T02:36:35;15.70;99.90
8332;DHT22;4203;48.144;14.118;2023-07-31T02:39:03;15.60;99.90
8332;DHT22;4203;48.144;14.118;2023-07-31T02:41:31;15.50;99.90
8332;DHT22;4203;48.144;14.118;2023-07-31T02:43:58;15.40;99.90
8332;DHT22;4203;48.144;14.118;2023-07-31T02:46:25;15.40;99.90
8332;DHT22;4203;48.144;14.118;2023-07-31T02:48:52;15.30;99.90
8332;DHT22;4203;48.144;14.118;2023-07-31T02:51:21;15.20;99.90
8332;DHT22;4203;48.144;14.118;2023-07-31T02:53:48;15.20;99.90
8332;DHT22;4203;48.144;14.118;2023-07-31T02:56:15;15.10;99.90
8332;DHT22;4203;48.144;14.118;2023-07-31T02:58:42;15.10;99.90
8332;DHT22;4203;48.144;14.118;2023-07-31T03:01:09;15.10;99.90
8332;DHT22;4203;48.144;14.118;2023-07-31T03:03:37;15.10;99.90
8332;DHT22;4203;48.144;14.118;2023-07-31T03:06:04;15.00;99.90
8332;DHT22;4203;48.144;14.118;2023-07-31T03:08:32;14.90;99.90
8332;DHT22;4203;48.144;14.118;2023-07-31T03:10:59;14.90;99.90
8332;DHT22;4203;48.144;14.118;2023-07-31T03:13:27;14.90;99.90
8332;DHT22;4203;48.144;14.118;2023-07-31T03:15:54;14.90;99.90
8332;DHT22;4203;48.144;14.118;2023-07-31T03:18:21;15.00;99.90
8332;DHT22;4203;48.144;14.118;2023-07-31T03:20:48;15.00;99.90
8332;DHT22;4203;48.144;14.118;2023-07-31T03:23:15;15.00;99.90
8332;DHT22;4203;48.144;14.118;2023-07-31T03:25:55;15.00;99.90
8332;DHT22;4203;48.144;14.118;2023-07-31T03:28:23;14.90;99.90
8332;DHT22;4203;48.144;14.118;2023-07-31T03:30:50;14.90;99.90
8332;DHT22;4203;48.144;14.118;2023-07-31T03:33:18;14.80;99.90
8332;DHT22;4203;48.144;14.118;2023-07-31T03:35:45;14.90;99.90
8332;DHT22;4203;48.144;14.118;2023-07-31T03:38:12;14.90;99.90
8332;DHT22;4203;48.144;14.118;2023-07-31T03:40:39;14.80;99.90
8332;DHT22;4203;48.144;14.118;2023-07-31T03:43:08;14.70;99.90
8332;DHT22;4203;48.144;14.118;2023-07-31T03:45:35;14.60;99.90
8332;DHT22;4203;48.144;14.118;2023-07-31T03:48:03;14.60;99.90
8332;DHT22;4203;48.144;14.118;2023-07-31T03:50:30;14.50;99.90
8332;DHT22;4203;48.144;14.118;2023-07-31T03:52:57;14.60;99.90
8332;DHT22;4203;48.144;14.118;2023-07-31T03:55:24;14.60;99.90
8332;DHT22;4203;48.144;14.118;2023-07-31T03:57:51;14.60;99.90
8332;DHT22;4203;48.144;14.118;2023-07-31T04:00:20;14.70;99.90
8332;DHT22;4203;48.144;14.118;2023-07-31T04:02:48;14.70;99.90
8332;DHT22;4203;48.144;14.118;2023-07-31T04:05:15;14.70;99.90
8332;DHT22;4203;48.144;14.118;2023-07-31T04:07:42;14.70;99.90
8332;DHT22;4203;48.144;14.118;2023-07-31T04:10:10;14.80;99.90
8332;DHT22;4203;48.144;14.118;2023-07-31T04:12:37;14.80;99.90
8332;DHT22;4203;48.144;14.118;2023-07-31T04:15:05;14.80;99.90
8332;DHT22;4203;48.144;14.118;2023-07-31T04:17:33;14.70;99.90
8332;DHT22;4203;48.144;14.118;2023-07-31T04:20:01;14.60;99.90
8332;DHT22;4203;48.144;14.118;2023-07-31T04:22:28;14.50;99.90
8332;DHT22;4203;48.144;14.118;2023-07-31T04:24:55;14.50;99.90
8332;DHT22;4203;48.144;14.118;2023-07-31T04:27:22;14.40;99.90
8332;DHT22;4203;48.144;14.118;2023-07-31T04:29:49;14.50;99.90
8332;DHT22;4203;48.144;14.118;2023-07-31T04:32:16;14.50;99.90
8332;DHT22;4203;48.144;14.118;2023-07-31T04:34:46;14.40;99.90
8332;DHT22;4203;48.144;14.118;2023-07-31T04:37:13;14.30;99.90
8332;DHT22;4203;48.144;14.118;2023-07-31T04:39:41;14.30;99.90
8332;DHT22;4203;48.144;14.118;2023-07-31T04:42:08;14.30;99.90
8332;DHT22;4203;48.144;14.118;2023-07-31T04:44:35;14.30;99.90
8332;DHT22;4203;48.144;14.118;2023-07-31T04:47:03;14.30;99.90
8332;DHT22;4203;48.144;14.118;2023-07-31T04:49:31;14.30;99.90
8332;DHT22;4203;48.144;14.118;2023-07-31T04:51:59;14.30;99.90
8332;DHT22;4203;48.144;14.118;2023-07-31T04:54:26;14.30;99.90
8332;DHT22;4203;48.144;14.118;2023-07-31T04:56:54;14.30;99.90
8332;DHT22;4203;48.144;14.118;2023-07-31T04:59:21;14.50;99.90
8332;DHT22;4203;48.144;14.118;2023-07-31T05:01:48;14.80;99.90
8332;DHT22;4203;48.144;14.118;2023-07-31T05:04:15;15.00;99.90
8332;DHT22;4203;48.144;14.118;2023-07-31T05:06:42;15.20;99.90
8332;DHT22;4203;48.144;14.118;2023-07-31T05:09:11;15.40;99.90
8332;DHT22;4203;48.144;14.118;2023-07-31T05:11:39;15.60;99.90
8332;DHT22;4203;48.144;14.118;2023-07-31T05:14:08;15.80;99.90
8332;DHT22;4203;48.144;14.118;2023-07-31T05:16:35;16.00;99.90
8332;DHT22;4203;48.144;14.118;2023-07-31T05:19:02;16.10;99.90
8332;DHT22;4203;48.144;14.118;2023-07-31T05:21:30;16.30;99.90
8332;DHT22;4203;48.144;14.118;2023-07-31T05:23:57;16.50;99.90
8332;DHT22;4203;48.144;14.118;2023-07-31T05:26:25;16.70;99.90
8332;DHT22;4203;48.144;14.118;2023-07-31T05:28:53;16.80;99.90
8332;DHT22;4203;48.144;14.118;2023-07-31T05:31:20;17.00;99.90
8332;DHT22;4203;48.144;14.118;2023-07-31T05:33:48;17.10;99.90
8332;DHT22;4203;48.144;14.118;2023-07-31T05:36:16;17.30;99.90
8332;DHT22;4203;48.144;14.118;2023-07-31T05:38:43;17.50;99.90
8332;DHT22;4203;48.144;14.118;2023-07-31T05:41:11;17.70;99.90
8332;DHT22;4203;48.144;14.118;2023-07-31T05:43:40;17.80;99.90
8332;DHT22;4203;48.144;14.118;2023-07-31T05:46:08;18.00;99.90
8332;DHT22;4203;48.144;14.118;2023-07-31T05:48:37;18.10;99.90
8332;DHT22;4203;48.144;14.118;2023-07-31T05:51:04;18.20;99.90
8332;DHT22;4203;48.144;14.118;2023-07-31T05:53:32;18.40;99.90
8332;DHT22;4203;48.144;14.118;2023-07-31T05:56:00;18.50;99.90
8332;DHT22;4203;48.144;14.118;2023-07-31T05:58:27;18.60;99.90
8332;DHT22;4203;48.144;14.118;2023-07-31T06:00:56;18.60;99.90
8332;DHT22;4203;48.144;14.118;2023-07-31T06:03:24;18.70;99.90
8332;DHT22;4203;48.144;14.118;2023-07-31T06:05:51;18.80;99.90
8332;DHT22;4203;48.144;14.118;2023-07-31T06:08:18;18.80;99.90
8332;DHT22;4203;48.144;14.118;2023-07-31T06:10:45;18.90;99.90
8332;DHT22;4203;48.144;14.118;2023-07-31T06:13:13;19.00;99.90
8332;DHT22;4203;48.144;14.118;2023-07-31T06:15:40;19.10;99.90
8332;DHT22;4203;48.144;14.118;2023-07-31T06:18:08;19.30;99.90
8332;DHT22;4203;48.144;14.118;2023-07-31T06:20:36;19.50;99.90
8332;DHT22;4203;48.144;14.118;2023-07-31T06:23:04;19.70;99.90
8332;DHT22;4203;48.144;14.118;2023-07-31T06:25:32;20.00;99.90
8332;DHT22;4203;48.144;14.118;2023-07-31T06:27:59;20.20;99.90
8332;DHT22;4203;48.144;14.118;2023-07-31T06:30:26;20.40;99.90
8332;DHT22;4203;48.144;14.118;2023-07-31T06:32:53;20.50;99.90
8332;DHT22;4203;48.144;14.118;2023-07-31T06:35:22;20.60;99.90
8332;DHT22;4203;48.144;14.118;2023-07-31T06:37:49;20.60;99.90
8332;DHT22;4203;48.144;14.118;2023-07-31T06:40:16;20.60;99.90
8332;DHT22;4203;48.144;14.118;2023-07-31T06:42:45;20.40;99.90
8332;DHT22;4203;48.144;14.118;2023-07-31T06:45:12;20.40;99.90
8332;DHT22;4203;48.144;14.118;2023-07-31T06:47:39;20.50;99.90
8332;DHT22;4203;48.144;14.118;2023-07-31T06:50:07;20.70;99.90
8332;DHT22;4203;48.144;14.118;2023-07-31T06:52:36;21.00;99.90
8332;DHT22;4203;48.144;14.118;2023-07-31T06:55:09;21.20;99.90
8332;DHT22;4203;48.144;14.118;2023-07-31T06:57:43;21.40;99.90
8332;DHT22;4203;48.144;14.118;2023-07-31T07:00:11;21.70;99.90
8332;DHT22;4203;48.144;14.118;2023-07-31T07:02:39;21.90;99.90
8332;DHT22;4203;48.144;14.118;2023-07-31T07:05:07;22.20;99.90
8332;DHT22;4203;48.144;14.118;2023-07-31T07:07:35;22.50;99.90
8332;DHT22;4203;48.144;14.118;2023-07-31T07:10:04;22.90;99.90
8332;DHT22;4203;48.144;14.118;2023-07-31T07:12:32;23.10;99.90
8332;DHT22;4203;48.144;14.118;2023-07-31T07:14:59;23.40;99.90
8332;DHT22;4203;48.144;14.118;2023-07-31T07:17:29;23.60;99.90
8332;DHT22;4203;48.144;14.118;2023-07-31T07:19:57;23.30;99.90
8332;DHT22;4203;48.144;14.118;2023-07-31T07:22:23;23.10;99.90
8332;DHT22;4203;48.144;14.118;2023-07-31T07:24:51;22.80;99.90
8332;DHT22;4203;48.144;14.118;2023-07-31T07:27:19;22.70;99.90
8332;DHT22;4203;48.144;14.118;2023-07-31T07:29:47;22.90;99.90
8332;DHT22;4203;48.144;14.118;2023-07-31T07:32:14;23.20;99.90
8332;DHT22;4203;48.144;14.118;2023-07-31T07:34:41;23.60;99.90
8332;DHT22;4203;48.144;14.118;2023-07-31T07:37:08;24.10;99.90
8332;DHT22;4203;48.144;14.118;2023-07-31T07:39:35;24.50;99.90
8332;DHT22;4203;48.144;14.118;2023-07-31T07:42:04;24.80;99.90
8332;DHT22;4203;48.144;14.118;2023-07-31T07:44:32;25.00;99.90
8332;DHT22;4203;48.144;14.118;2023-07-31T07:46:59;25.20;99.90
8332;DHT22;4203;48.144;14.118;2023-07-31T07:49:26;25.20;99.90
8332;DHT22;4203;48.144;14.118;2023-07-31T07:51:53;25.50;99.90
8332;DHT22;4203;48.144;14.118;2023-07-31T07:54:20;25.60;99.90
8332;DHT22;4203;48.144;14.118;2023-07-31T07:56:47;25.60;99.90
8332;DHT22;4203;48.144;14.118;2023-07-31T07:59:16;25.60;99.90
8332;DHT22;4203;48.144;14.118;2023-07-31T08:01:43;25.60;99.90
8332;DHT22;4203;48.144;14.118;2023-07-31T08:04:11;25.70;99.90
8332;DHT22;4203;48.144;14.118;2023-07-31T08:06:38;25.60;99.90
8332;DHT22;4203;48.144;14.118;2023-07-31T08:09:05;25.60;99.90
8332;DHT22;4203;48.144;14.118;2023-07-31T08:11:34;25.60;99.90
8332;DHT22;4203;48.144;14.118;2023-07-31T08:14:01;25.90;99.90
8332;DHT22;4203;48.144;14.118;2023-07-31T08:16:29;26.20;99.90
8332;DHT22;4203;48.144;14.118;2023-07-31T08:18:57;26.10;99.90
8332;DHT22;4203;48.144;14.118;2023-07-31T08:21:24;25.90;99.90
8332;DHT22;4203;48.144;14.118;2023-07-31T08:23:51;25.70;99.90
8332;DHT22;4203;48.144;14.118;2023-07-31T08:26:19;25.30;99.90
8332;DHT22;4203;48.144;14.118;2023-07-31T08:28:46;25.00;99.90
8332;DHT22;4203;48.144;14.118;2023-07-31T08:31:13;25.00;99.90
8332;DHT22;4203;48.144;14.118;2023-07-31T08:33:42;25.10;99.90
8332;DHT22;4203;48.144;14.118;2023-07-31T08:36:09;25.30;99.90
8332;DHT22;4203;48.144;14.118;2023-07-31T08:38:36;25.60;99.90
8332;DHT22;4203;48.144;14.118;2023-07-31T08:41:04;25.60;99.90
8332;DHT22;4203;48.144;14.118;2023-07-31T08:43:31;25.40;99.90
8332;DHT22;4203;48.144;14.118;2023-07-31T08:45:59;25.60;99.90
8332;DHT22;4203;48.144;14.118;2023-07-31T08:48:28;26.10;99.90
8332;DHT22;4203;48.144;14.118;2023-07-31T08:50:57;26.50;99.90
8332;DHT22;4203;48.144;14.118;2023-07-31T08:53:25;26.70;99.90
8332;DHT22;4203;48.144;14.118;2023-07-31T08:55:53;26.90;99.90
8332;DHT22;4203;48.144;14.118;2023-07-31T08:58:20;26.60;99.90
8332;DHT22;4203;48.144;14.118;2023-07-31T09:00:48;26.50;99.90
8332;DHT22;4203;48.144;14.118;2023-07-31T09:03:18;26.50;99.90
8332;DHT22;4203;48.144;14.118;2023-07-31T09:05:46;26.30;99.90
8332;DHT22;4203;48.144;14.118;2023-07-31T09:08:18;26.20;99.90
8332;DHT22;4203;48.144;14.118;2023-07-31T09:10:46;26.10;99.90
8332;DHT22;4203;48.144;14.118;2023-07-31T09:13:16;25.90;99.90
8332;DHT22;4203;48.144;14.118;2023-07-31T09:15:44;26.00;99.90
8332;DHT22;4203;48.144;14.118;2023-07-31T09:18:12;25.90;99.90
8332;DHT22;4203;48.144;14.118;2023-07-31T09:20:40;26.00;99.90
8332;DHT22;4203;48.144;14.118;2023-07-31T09:23:08;26.00;99.90
8332;DHT22;4203;48.144;14.118;2023-07-31T09:25:38;26.20;99.90
8332;DHT22;4203;48.144;14.118;2023-07-31T09:28:07;26.30;99.90
8332;DHT22;4203;48.144;14.118;2023-07-31T09:30:46;26.60;99.90
8332;DHT22;4203;48.144;14.118;2023-07-31T09:33:13;26.90;99.90
8332;DHT22;4203;48.144;14.118;2023-07-31T09:35:41;27.00;99.90
8332;DHT22;4203;48.144;14.118;2023-07-31T09:38:10;27.20;99.90
8332;DHT22;4203;48.144;14.118;2023-07-31T09:40:41;27.30;99.90
8332;DHT22;4203;48.144;14.118;2023-07-31T09:43:09;27.40;99.90
8332;DHT22;4203;48.144;14.118;2023-07-31T09:45:38;27.60;99.90
8332;DHT22;4203;48.144;14.118;2023-07-31T09:48:07;27.90;99.90
8332;DHT22;4203;48.144;14.118;2023-07-31T09:50:37;28.40;99.90
8332;DHT22;4203;48.144;14.118;2023-07-31T09:53:05;28.90;99.90
8332;DHT22;4203;48.144;14.118;2023-07-31T09:55:33;29.40;99.90
8332;DHT22;4203;48.144;14.118;2023-07-31T09:58:04;29.60;99.90
8332;DHT22;4203;48.144;14.118;2023-07-31T10:00:32;30.00;99.90
8332;DHT22;4203;48.144;14.118;2023-07-31T10:03:00;30.00;99.90
8332;DHT22;4203;48.144;14.118;2023-07-31T10:05:31;30.00;97.80
8332;DHT22;4203;48.144;14.118;2023-07-31T10:08:01;30.10;99.60
8332;DHT22;4203;48.144;14.118;2023-07-31T10:10:28;29.70;99.90
8332;DHT22;4203;48.144;14.118;2023-07-31T10:12:56;29.50;99.90
8332;DHT22;4203;48.144;14.118;2023-07-31T10:15:25;29.60;99.90
8332;DHT22;4203;48.144;14.118;2023-07-31T10:17:54;29.80;99.90
8332;DHT22;4203;48.144;14.118;2023-07-31T10:20:22;30.10;99.00
8332;DHT22;4203;48.144;14.118;2023-07-31T10:22:51;30.50;98.50
8332;DHT22;4203;48.144;14.118;2023-07-31T10:25:20;30.80;98.90
8332;DHT22;4203;48.144;14.118;2023-07-31T10:27:49;30.90;97.50
8332;DHT22;4203;48.144;14.118;2023-07-31T10:30:20;31.10;94.90
8332;DHT22;4203;48.144;14.118;2023-07-31T10:32:51;30.80;96.10
8332;DHT22;4203;48.144;14.118;2023-07-31T10:35:20;30.30;94.60
8332;DHT22;4203;48.144;14.118;2023-07-31T10:37:48;30.20;95.40
8332;DHT22;4203;48.144;14.118;2023-07-31T10:40:17;30.40;94.80
8332;DHT22;4203;48.144;14.118;2023-07-31T10:42:46;30.50;96.20
8332;DHT22;4203;48.144;14.118;2023-07-31T10:45:23;30.00;97.20
8332;DHT22;4203;48.144;14.118;2023-07-31T10:47:58;29.80;97.60
8332;DHT22;4203;48.144;14.118;2023-07-31T10:50:27;30.10;96.00
8332;DHT22;4203;48.144;14.118;2023-07-31T10:52:56;30.50;97.80
8332;DHT22;4203;48.144;14.118;2023-07-31T10:55:29;30.80;96.00
8332;DHT22;4203;48.144;14.118;2023-07-31T10:57:58;31.20;95.70
8332;DHT22;4203;48.144;14.118;2023-07-31T11:00:31;31.60;95.30
8332;DHT22;4203;48.144;14.118;2023-07-31T11:03:03;31.70;92.00
8332;DHT22;4203;48.144;14.118;2023-07-31T11:05:50;31.60;99.00
8332;DHT22;4203;48.144;14.118;2023-07-31T11:08:20;32.10;95.00
8332;DHT22;4203;48.144;14.118;2023-07-31T11:10:49;32.20;95.80
8332;DHT22;4203;48.144;14.118;2023-07-31T11:13:17;32.00;91.90
8332;DHT22;4203;48.144;14.118;2023-07-31T11:15:45;30.90;92.70
8332;DHT22;4203;48.144;14.118;2023-07-31T11:18:14;30.10;93.80
8332;DHT22;4203;48.144;14.118;2023-07-31T11:20:42;29.00;94.80
8332;DHT22;4203;48.144;14.118;2023-07-31T11:23:10;28.50;96.40
8332;DHT22;4203;48.144;14.118;2023-07-31T11:25:38;28.40;96.00
8332;DHT22;4203;48.144;14.118;2023-07-31T11:28:10;28.50;94.80
8332;DHT22;4203;48.144;14.118;2023-07-31T11:30:37;28.70;98.10
8332;DHT22;4203;48.144;14.118;2023-07-31T11:33:06;29.00;97.50
8332;DHT22;4203;48.144;14.118;2023-07-31T11:35:36;29.50;99.90
8332;DHT22;4203;48.144;14.118;2023-07-31T11:38:09;29.90;96.60
8332;DHT22;4203;48.144;14.118;2023-07-31T11:40:42;30.10;98.10
8332;DHT22;4203;48.144;14.118;2023-07-31T11:43:10;29.90;93.40
8332;DHT22;4203;48.144;14.118;2023-07-31T11:45:42;29.40;93.80
8332;DHT22;4203;48.144;14.118;2023-07-31T11:48:19;29.10;99.50
8332;DHT22;4203;48.144;14.118;2023-07-31T11:50:48;29.10;99.90
8332;DHT22;4203;48.144;14.118;2023-07-31T11:53:19;29.50;99.60
8332;DHT22;4203;48.144;14.118;2023-07-31T11:55:47;29.80;98.80
8332;DHT22;4203;48.144;14.118;2023-07-31T11:58:15;30.10;98.40
8332;DHT22;4203;48.144;14.118;2023-07-31T12:00:43;30.30;98.00
8332;DHT22;4203;48.144;14.118;2023-07-31T12:03:11;30.40;99.90
8332;DHT22;4203;48.144;14.118;2023-07-31T12:05:38;30.80;98.10
8332;DHT22;4203;48.144;14.118;2023-07-31T12:08:11;30.80;94.30
8332;DHT22;4203;48.144;14.118;2023-07-31T12:10:38;31.10;96.00
8332;DHT22;4203;48.144;14.118;2023-07-31T12:13:08;31.30;98.10
8332;DHT22;4203;48.144;14.118;2023-07-31T12:15:40;31.70;97.90
8332;DHT22;4203;48.144;14.118;2023-07-31T12:18:09;31.60;91.00
8332;DHT22;4203;48.144;14.118;2023-07-31T12:20:41;31.40;98.20
8332;DHT22;4203;48.144;14.118;2023-07-31T12:23:19;31.70;96.70
8332;DHT22;4203;48.144;14.118;2023-07-31T12:26:00;32.00;91.80
8332;DHT22;4203;48.144;14.118;2023-07-31T12:28:28;31.30;91.90
8332;DHT22;4203;48.144;14.118;2023-07-31T12:30:57;30.80;94.40
8332;DHT22;4203;48.144;14.118;2023-07-31T12:33:31;30.60;97.20
8332;DHT22;4203;48.144;14.118;2023-07-31T12:36:01;30.90;96.80
8332;DHT22;4203;48.144;14.118;2023-07-31T12:38:30;31.00;97.60
8332;DHT22;4203;48.144;14.118;2023-07-31T12:40:57;31.50;97.10
8332;DHT22;4203;48.144;14.118;2023-07-31T12:43:24;31.60;96.30
8332;DHT22;4203;48.144;14.118;2023-07-31T12:45:53;31.90;96.00
8332;DHT22;4203;48.144;14.118;2023-07-31T12:48:20;30.80;95.80
8332;DHT22;4203;48.144;14.118;2023-07-31T12:50:48;32.10;92.60
8332;DHT22;4203;48.144;14.118;2023-07-31T12:53:15;31.90;93.10
8332;DHT22;4203;48.144;14.118;2023-07-31T12:55:43;31.40;91.40
8332;DHT22;4203;48.144;14.118;2023-07-31T12:58:11;30.90;94.90
8332;DHT22;4203;48.144;14.118;2023-07-31T13:00:38;30.70;95.10
8332;DHT22;4203;48.144;14.118;2023-07-31T13:03:05;30.80;98.10
8332;DHT22;4203;48.144;14.118;2023-07-31T13:05:32;30.90;94.90
8332;DHT22;4203;48.144;14.118;2023-07-31T13:07:59;31.10;95.50
8332;DHT22;4203;48.144;14.118;2023-07-31T13:10:27;31.40;95.30
8332;DHT22;4203;48.144;14.118;2023-07-31T13:12:57;31.60;96.00
8332;DHT22;4203;48.144;14.118;2023-07-31T13:15:24;31.50;93.90
8332;DHT22;4203;48.144;14.118;2023-07-31T13:17:51;31.30;95.60
8332;DHT22;4203;48.144;14.118;2023-07-31T13:20:18;31.30;96.10
8332;DHT22;4203;48.144;14.118;2023-07-31T13:22:45;31.40;94.40
8332;DHT22;4203;48.144;14.118;2023-07-31T13:25:13;31.70;97.20
8332;DHT22;4203;48.144;14.118;2023-07-31T13:27:40;31.50;94.70
8332;DHT22;4203;48.144;14.118;2023-07-31T13:30:09;31.20;92.60
8332;DHT22;4203;48.144;14.118;2023-07-31T13:32:36;30.90;95.70
8332;DHT22;4203;48.144;14.118;2023-07-31T13:35:05;30.70;95.30
8332;DHT22;4203;48.144;14.118;2023-07-31T13:37:32;30.40;92.50
8332;DHT22;4203;48.144;14.118;2023-07-31T13:39:59;30.20;92.10
8332;DHT22;4203;48.144;14.118;2023-07-31T13:42:27;30.30;96.80
8332;DHT22;4203;48.144;14.118;2023-07-31T13:44:54;30.50;94.30
8332;DHT22;4203;48.144;14.118;2023-07-31T13:47:24;30.60;91.70
8332;DHT22;4203;48.144;14.118;2023-07-31T13:49:51;30.60;91.50
8332;DHT22;4203;48.144;14.118;2023-07-31T13:52:18;30.70;94.70
8332;DHT22;4203;48.144;14.118;2023-07-31T13:54:45;30.80;96.00
8332;DHT22;4203;48.144;14.118;2023-07-31T13:57:12;30.70;93.10
8332;DHT22;4203;48.144;14.118;2023-07-31T13:59:40;30.70;91.30
8332;DHT22;4203;48.144;14.118;2023-07-31T14:02:07;30.60;92.60
8332;DHT22;4203;48.144;14.118;2023-07-31T14:04:36;30.40;93.50
8332;DHT22;4203;48.144;14.118;2023-07-31T14:07:03;30.00;92.30
8332;DHT22;4203;48.144;14.118;2023-07-31T14:09:30;29.90;93.50
8332;DHT22;4203;48.144;14.118;2023-07-31T14:11:58;30.00;94.50
8332;DHT22;4203;48.144;14.118;2023-07-31T14:14:25;30.00;94.20
8332;DHT22;4203;48.144;14.118;2023-07-31T14:16:52;30.10;93.80
8332;DHT22;4203;48.144;14.118;2023-07-31T14:19:19;30.20;95.10
8332;DHT22;4203;48.144;14.118;2023-07-31T14:21:48;30.10;92.30
8332;DHT22;4203;48.144;14.118;2023-07-31T14:24:16;29.90;94.60
8332;DHT22;4203;48.144;14.118;2023-07-31T14:26:43;29.80;90.80
8332;DHT22;4203;48.144;14.118;2023-07-31T14:29:10;29.60;91.20
8332;DHT22;4203;48.144;14.118;2023-07-31T14:31:37;29.70;93.70
8332;DHT22;4203;48.144;14.118;2023-07-31T14:34:05;29.70;93.20
8332;DHT22;4203;48.144;14.118;2023-07-31T14:36:32;29.80;94.40
8332;DHT22;4203;48.144;14.118;2023-07-31T14:39:01;29.80;95.20
8332;DHT22;4203;48.144;14.118;2023-07-31T14:41:28;29.80;93.40
8332;DHT22;4203;48.144;14.118;2023-07-31T14:43:55;29.80;93.80
8332;DHT22;4203;48.144;14.118;2023-07-31T14:46:22;29.80;93.50
8332;DHT22;4203;48.144;14.118;2023-07-31T14:48:49;29.70;93.50
8332;DHT22;4203;48.144;14.118;2023-07-31T14:51:17;29.60;91.50
8332;DHT22;4203;48.144;14.118;2023-07-31T14:53:44;29.20;91.50
8332;DHT22;4203;48.144;14.118;2023-07-31T14:56:14;29.00;94.30
8332;DHT22;4203;48.144;14.118;2023-07-31T14:58:41;28.80;88.80
8332;DHT22;4203;48.144;14.118;2023-07-31T15:01:08;28.70;91.70
8332;DHT22;4203;48.144;14.118;2023-07-31T15:03:35;28.60;94.30
8332;DHT22;4203;48.144;14.118;2023-07-31T15:06:02;28.60;94.80
8332;DHT22;4203;48.144;14.118;2023-07-31T15:08:32;28.70;95.40
8332;DHT22;4203;48.144;14.118;2023-07-31T15:10:59;28.70;94.30
8332;DHT22;4203;48.144;14.118;2023-07-31T15:13:27;28.70;94.50
8332;DHT22;4203;48.144;14.118;2023-07-31T15:15:54;28.50;92.30
8332;DHT22;4203;48.144;14.118;2023-07-31T15:18:23;28.40;94.40
8332;DHT22;4203;48.144;14.118;2023-07-31T15:20:51;28.50;94.40
8332;DHT22;4203;48.144;14.118;2023-07-31T15:23:18;28.40;94.60
8332;DHT22;4203;48.144;14.118;2023-07-31T15:25:45;28.30;94.30
8332;DHT22;4203;48.144;14.118;2023-07-31T15:28:12;28.10;94.70
8332;DHT22;4203;48.144;14.118;2023-07-31T15:30:41;28.00;94.90
8332;DHT22;4203;48.144;14.118;2023-07-31T15:33:08;27.90;96.20
8332;DHT22;4203;48.144;14.118;2023-07-31T15:35:35;27.70;93.70
8332;DHT22;4203;48.144;14.118;2023-07-31T15:38:02;27.60;95.10
8332;DHT22;4203;48.144;14.118;2023-07-31T15:40:30;27.50;95.50
8332;DHT22;4203;48.144;14.118;2023-07-31T15:42:57;27.30;96.60
8332;DHT22;4203;48.144;14.118;2023-07-31T15:45:26;27.20;96.80
8332;DHT22;4203;48.144;14.118;2023-07-31T15:47:54;27.10;97.00
8332;DHT22;4203;48.144;14.118;2023-07-31T15:50:21;27.00;97.50